Time;durP1;ratioP1;P1;durP2;ratioP2;P2;SDS_P1;SDS_P2;PMS_P1;PMS_P2;Temp;Humidity;BMP_temperature;BMP_pressure;BME280_temperature;BME280_humidity;BME280_pressure;Samples;Min_cycle;Max_cycle;Signal;HPM_P1;HPM_P2
2023/11/21 00:00:26;;;;;;;43.35;29.13;;;7.80;99.90;;;;;;5072160;28;20031;-58
2023/11/21 00:02:51;;;;;;;45.45;29.88;;;7.90;99.90;;;;;;5071446;28;20519;-56
2023/11/21 00:05:17;;;;;;;71.40;42.38;;;8.00;99.90;;;;;;5071694;28;20044;-60
2023/11/21 00:07:43;;;;;;;59.45;34.75;;;8.00;99.90;;;;;;5019432;28;20037;-64
2023/11/21 00:10:10;;;;;;;50.33;31.35;;;7.50;99.90;;;;;;5071639;28;20028;-60
2023/11/21 00:12:36;;;;;;;66.10;37.78;;;7.50;99.90;;;;;;5071495;28;20063;-63
2023/11/21 00:15:02;;;;;;;49.92;29.90;;;7.50;99.90;;;;;;5071484;28;20500;-60
2023/11/21 00:17:28;;;;;;;48.03;29.05;;;7.40;99.90;;;;;;5071480;28;20123;-54
2023/11/21 00:19:54;;;;;;;36.08;22.38;;;7.40;99.90;;;;;;5073048;28;20450;-53
2023/11/21 00:22:20;;;;;;;26.63;18.20;;;7.60;99.90;;;;;;5040037;28;20098;-57
2023/11/21 00:24:48;;;;;;;29.67;17.55;;;7.60;99.90;;;;;;5075321;28;20075;-60
2023/11/21 00:27:14;;;;;;;23.15;15.60;;;7.60;99.90;;;;;;5023506;28;20055;-56
2023/11/21 00:29:40;;;;;;;20.95;16.17;;;7.60;99.90;;;;;;5075469;28;20036;-62
2023/11/21 00:32:06;;;;;;;17.90;14.02;;;7.70;99.90;;;;;;5075805;28;20032;-59
2023/11/21 00:34:32;;;;;;;23.73;15.35;;;7.80;99.90;;;;;;5023611;28;20128;-58
2023/11/21 00:36:58;;;;;;;19.02;11.77;;;7.90;99.90;;;;;;5075300;28;20028;-57
2023/11/21 00:39:25;;;;;;;21.50;12.98;;;8.10;99.90;;;;;;5075279;28;20121;-60
2023/11/21 00:41:52;;;;;;;19.98;11.90;;;7.80;99.90;;;;;;5039937;28;20040;-55
2023/11/21 00:44:18;;;;;;;18.55;13.52;;;7.40;99.90;;;;;;5091818;28;20079;-61
2023/11/21 00:46:44;;;;;;;21.45;12.93;;;7.30;99.90;;;;;;5095361;28;20113;-58
2023/11/21 00:49:10;;;;;;;20.33;11.32;;;7.50;99.90;;;;;;5095406;28;20024;-53
2023/11/21 00:51:36;;;;;;;18.05;12.48;;;7.40;99.90;;;;;;5095750;28;20386;-61
2023/11/21 00:54:02;;;;;;;22.23;11.98;;;7.30;99.90;;;;;;5095128;28;20036;-55
2023/11/21 00:56:28;;;;;;;22.60;13.48;;;7.30;99.90;;;;;;5095242;28;20028;-63
2023/11/21 00:58:54;;;;;;;17.83;11.55;;;7.30;99.90;;;;;;5095326;28;20042;-59
2023/11/21 01:01:22;;;;;;;17.27;11.35;;;7.50;99.90;;;;;;5095289;28;20028;-63
2023/11/21 01:03:48;;;;;;;17.10;11.07;;;7.20;99.90;;;;;;5032423;28;20436;-51
2023/11/21 01:06:15;;;;;;;17.55;12.05;;;7.10;99.90;;;;;;5032580;28;20061;-57
2023/11/21 01:08:41;;;;;;;20.13;11.77;;;7.10;99.90;;;;;;4983171;28;20072;-55
2023/11/21 01:11:08;;;;;;;15.45;10.27;;;7.20;99.90;;;;;;5032446;28;20037;-60
2023/11/21 01:13:35;;;;;;;15.88;11.80;;;7.40;99.90;;;;;;5032538;28;20120;-58
2023/11/21 01:16:01;;;;;;;18.67;11.45;;;7.30;99.90;;;;;;5032262;28;20088;-54
2023/11/21 01:18:27;;;;;;;17.80;11.68;;;7.30;99.90;;;;;;5032444;28;20049;-59
2023/11/21 01:20:56;;;;;;;17.75;11.93;;;7.40;99.90;;;;;;5032166;28;20045;-56
2023/11/21 01:23:22;;;;;;;18.05;11.00;;;7.30;99.90;;;;;;5032255;28;20048;-60
2023/11/21 01:25:47;;;;;;;16.42;11.10;;;7.40;99.90;;;;;;5032238;28;20038;-56
2023/11/21 01:28:13;;;;;;;19.20;13.07;;;7.70;99.90;;;;;;4999198;28;20136;-57
2023/11/21 01:30:39;;;;;;;24.55;13.98;;;7.60;99.90;;;;;;4998701;28;20085;-61
2023/11/21 01:33:04;;;;;;;21.48;13.30;;;7.60;99.90;;;;;;5032019;28;20037;-56
2023/11/21 01:35:30;;;;;;;17.15;11.90;;;8.00;99.90;;;;;;5082824;28;20506;-52
2023/11/21 01:37:56;;;;;;;21.33;12.98;;;8.30;99.90;;;;;;5094257;28;20044;-61
2023/11/21 01:40:22;;;;;;;19.15;12.05;;;8.50;99.90;;;;;;5094612;28;20036;-56
2023/11/21 01:42:48;;;;;;;13.82;11.27;;;8.10;99.90;;;;;;5058449;28;20051;-54
2023/11/21 01:45:14;;;;;;;20.48;13.82;;;7.90;99.90;;;;;;5094683;28;20036;-63
2023/11/21 01:47:41;;;;;;;21.95;15.07;;;7.80;99.90;;;;;;5075498;28;20044;-62
2023/11/21 01:50:08;;;;;;;18.77;13.70;;;8.00;99.90;;;;;;5094386;28;20024;-62
2023/11/21 01:52:38;;;;;;;18.58;12.82;;;8.30;99.90;;;;;;5094401;28;20028;-59
2023/11/21 01:55:08;;;;;;;19.67;14.35;;;8.50;99.90;;;;;;5094663;28;20509;-62
2023/11/21 01:57:35;;;;;;;27.00;17.15;;;8.40;99.90;;;;;;5058969;28;20048;-61
2023/11/21 02:00:15;;;;;;;30.05;19.42;;;8.00;99.90;;;;;;5093875;28;20043;-61
2023/11/21 02:02:47;;;;;;;29.42;19.33;;;7.90;99.90;;;;;;5094081;28;20364;-54
2023/11/21 02:05:13;;;;;;;;;;;;;;;;;;5094545;28;20028;-62
2023/11/21 02:07:44;;;;;;;24.85;17.30;;;;;;;;;;5093993;28;20470;-60
2023/11/21 02:10:19;;;;;;;24.55;16.02;;;;;;;;;;5094403;28;20035;-59
2023/11/21 02:12:45;;;;;;;25.30;16.85;;;;;;;;;;5093611;28;20038;-55
2023/11/21 02:15:19;;;;;;;28.63;18.63;;;7.90;99.90;;;;;;5093727;28;20055;-63
2023/11/21 02:17:47;;;;;;;25.20;16.52;;;7.70;99.90;;;;;;5093578;28;20040;-58
2023/11/21 02:20:17;;;;;;;27.90;15.65;;;7.40;99.90;;;;;;5093805;28;20047;-56
2023/11/21 02:22:59;;;;;;;23.85;15.00;;;7.30;99.90;;;;;;5093692;28;20035;-58
2023/11/21 02:25:27;;;;;;;18.13;13.73;;;7.10;99.90;;;;;;5062689;28;20047;-58
2023/11/21 02:27:54;;;;;;;22.67;15.35;;;7.00;99.90;;;;;;5093447;28;20036;-64
2023/11/21 02:30:25;;;;;;;24.08;15.98;;;7.00;99.90;;;;;;5093663;28;20024;-58
2023/11/21 02:32:54;;;;;;;21.20;15.20;;;7.00;99.90;;;;;;5041432;28;20567;-56
2023/11/21 02:35:23;;;;;;;21.92;15.18;;;7.10;99.90;;;;;;5093473;28;20463;-65
2023/11/21 02:37:52;;;;;;;20.48;13.50;;;7.10;99.90;;;;;;5093364;28;20040;-58
2023/11/21 02:40:20;;;;;;;23.90;14.60;;;7.00;99.90;;;;;;5093314;28;20040;-59
2023/11/21 02:42:47;;;;;;;19.10;13.18;;;;;;;;;;5091899;28;20380;-58
2023/11/21 02:45:16;;;;;;;19.65;13.73;;;6.90;99.90;;;;;;5093553;28;20044;-63
2023/11/21 02:47:42;;;;;;;18.45;13.13;;;6.80;99.90;;;;;;5092838;28;20035;-64
2023/11/21 02:50:09;;;;;;;21.05;13.48;;;6.90;99.90;;;;;;5093073;28;20055;-56
2023/11/21 02:52:35;;;;;;;20.05;12.80;;;7.10;99.90;;;;;;5093626;28;20068;-56
2023/11/21 02:55:02;;;;;;;18.00;13.25;;;7.00;99.90;;;;;;5093105;28;20024;-61
2023/11/21 02:57:28;;;;;;;19.50;13.32;;;7.20;99.90;;;;;;5092873;28;20081;-65
2023/11/21 02:59:54;;;;;;;19.90;13.20;;;7.10;99.90;;;;;;5092982;28;20032;-56
2023/11/21 03:02:20;;;;;;;20.58;12.75;;;7.20;99.90;;;;;;5092855;28;20031;-64
2023/11/21 03:04:48;;;;;;;17.85;12.77;;;7.20;99.90;;;;;;5092737;28;20032;-56
2023/11/21 03:07:13;;;;;;;22.17;14.10;;;7.30;99.90;;;;;;5092870;28;20577;-55
2023/11/21 03:09:39;;;;;;;20.00;15.45;;;7.30;99.90;;;;;;5092986;28;20063;-59
2023/11/21 03:12:05;;;;;;;22.95;16.95;;;7.40;99.90;;;;;;5092728;28;20357;-66
2023/11/21 03:14:31;;;;;;;25.30;18.70;;;7.40;99.90;;;;;;5093167;28;20040;-63
2023/11/21 03:16:57;;;;;;;26.63;18.55;;;7.40;99.90;;;;;;5092941;28;20089;-61
2023/11/21 03:19:23;;;;;;;23.23;18.35;;;7.40;99.90;;;;;;5092291;28;20047;-61
2023/11/21 03:21:49;;;;;;;27.25;17.45;;;7.60;99.90;;;;;;5092547;28;20063;-57
2023/11/21 03:24:17;;;;;;;30.17;19.13;;;7.40;99.90;;;;;;5040271;28;20075;-58
2023/11/21 03:26:45;;;;;;;27.88;17.80;;;;;;;;;;5092533;28;20039;-61
2023/11/21 03:29:10;;;;;;;27.08;19.52;;;7.00;99.90;;;;;;5092597;28;20459;-59
2023/11/21 03:31:36;;;;;;;26.55;18.00;;;7.10;99.90;;;;;;5092700;28;20074;-63
2023/11/21 03:34:02;;;;;;;25.70;19.75;;;7.30;99.90;;;;;;5092724;28;20383;-59
2023/11/21 03:36:28;;;;;;;25.98;18.60;;;7.30;99.90;;;;;;5092410;28;20088;-56
2023/11/21 03:38:54;;;;;;;35.67;19.67;;;7.30;99.90;;;;;;5092061;28;20519;-57
2023/11/21 03:41:20;;;;;;;25.15;16.60;;;7.30;99.90;;;;;;5092593;28;20505;-57
2023/11/21 03:43:46;;;;;;;27.42;19.35;;;;;;;;;;5092190;28;20059;-61
2023/11/21 03:46:12;;;;;;;24.73;18.70;;;7.50;99.90;;;;;;5092216;28;20039;-59
2023/11/21 03:48:38;;;;;;;30.40;19.92;;;7.30;99.90;;;;;;5092130;28;20028;-56
2023/11/21 03:51:04;;;;;;;24.17;18.13;;;7.20;99.90;;;;;;5092258;28;20032;-61
2023/11/21 03:53:30;;;;;;;27.52;18.98;;;7.10;99.90;;;;;;5029212;28;20060;-58
2023/11/21 03:55:57;;;;;;;24.70;18.50;;;7.20;99.90;;;;;;5029634;28;20049;-57
2023/11/21 03:58:23;;;;;;;25.42;19.08;;;7.30;99.90;;;;;;5029564;28;20592;-60
2023/11/21 04:00:49;;;;;;;23.23;16.58;;;7.40;99.90;;;;;;4991775;28;20069;-60
2023/11/21 04:03:15;;;;;;;20.25;15.38;;;7.60;99.90;;;;;;5009996;28;20117;-57
2023/11/21 04:05:41;;;;;;;20.88;15.35;;;7.80;99.90;;;;;;5009534;28;20068;-58
2023/11/21 04:08:07;;;;;;;19.73;15.30;;;8.20;99.90;;;;;;4977100;28;20069;-54
2023/11/21 04:10:33;;;;;;;20.65;15.25;;;8.30;99.90;;;;;;5009705;28;20038;-59
2023/11/21 04:13:00;;;;;;;24.20;17.65;;;8.30;99.90;;;;;;5009965;28;20168;-58
2023/11/21 04:15:26;;;;;;;23.38;17.23;;;;;;;;;;5009674;28;20045;-57
2023/11/21 04:17:52;;;;;;;23.73;19.35;;;;;;;;;;5009614;28;20053;-62
2023/11/21 04:20:18;;;;;;;24.55;18.17;;;;;;;;;;5009686;28;20069;-58
2023/11/21 04:22:45;;;;;;;24.25;18.65;;;;;;;;;;5009506;28;20029;-56
2023/11/21 04:25:12;;;;;;;23.40;18.65;;;8.70;99.90;;;;;;5009588;28;20040;-62
2023/11/21 04:27:45;;;;;;;25.13;19.55;;;;;;;;;;4976515;28;20042;-60
2023/11/21 04:30:12;;;;;;;26.52;19.17;;;8.70;99.90;;;;;;5020753;28;20035;-58
2023/11/21 04:32:39;;;;;;;28.55;24.33;;;8.80;99.90;;;;;;5052486;28;20082;-58
2023/11/21 04:35:05;;;;;;;27.60;19.45;;;9.00;99.90;;;;;;5071471;28;20478;-55
2023/11/21 04:37:31;;;;;;;25.70;19.42;;;9.00;99.90;;;;;;5071303;28;20565;-63
2023/11/21 04:39:56;;;;;;;25.98;20.10;;;9.00;99.90;;;;;;5071759;28;20033;-57
2023/11/21 04:42:22;;;;;;;26.42;20.42;;;9.00;99.90;;;;;;5071150;28;20107;-62
2023/11/21 04:44:49;;;;;;;31.92;22.73;;;9.10;99.90;;;;;;5071154;28;20029;-55
2023/11/21 04:47:15;;;;;;;29.48;21.38;;;;;;;;;;5071576;28;20115;-60
2023/11/21 04:49:46;;;;;;;27.13;19.38;;;9.20;99.90;;;;;;5070928;28;20110;-58
2023/11/21 04:52:12;;;;;;;26.23;19.88;;;9.20;99.90;;;;;;5071384;28;20155;-58
2023/11/21 04:54:39;;;;;;;26.98;21.33;;;9.30;99.90;;;;;;5071496;28;20465;-63
2023/11/21 04:57:07;;;;;;;31.83;23.25;;;9.30;99.90;;;;;;5071239;28;20059;-66
2023/11/21 04:59:33;;;;;;;31.77;23.15;;;9.20;99.90;;;;;;5052466;28;20060;-56
2023/11/21 05:02:03;;;;;;;31.23;24.60;;;;;;;;;;5071150;28;20035;-57
2023/11/21 05:04:29;;;;;;;33.58;25.35;;;;;;;;;;5071029;28;20099;-58
2023/11/21 05:06:55;;;;;;;37.38;27.52;;;;;;;;;;5071875;28;20082;-62
2023/11/21 05:09:22;;;;;;;39.17;29.08;;;;;;;;;;5074817;28;20028;-59
2023/11/21 05:11:48;;;;;;;41.80;28.50;;;;;;;;;;5074937;28;20399;-60
2023/11/21 05:14:14;;;;;;;38.47;28.10;;;;;;;;;;5074607;28;20036;-55
2023/11/21 05:16:40;;;;;;;43.40;29.60;;;9.00;99.90;;;;;;5075309;28;20043;-58
2023/11/21 05:19:06;;;;;;;40.15;29.13;;;8.60;99.90;;;;;;5075528;28;20449;-62
2023/11/21 05:21:32;;;;;;;45.03;28.75;;;8.40;99.90;;;;;;5094651;28;20032;-61
2023/11/21 05:23:58;;;;;;;41.72;27.90;;;8.20;99.90;;;;;;5094675;28;20461;-63
2023/11/21 05:26:24;;;;;;;47.88;31.73;;;8.10;99.90;;;;;;5094752;28;20103;-64
2023/11/21 05:28:50;;;;;;;48.22;31.13;;;8.10;99.90;;;;;;5094941;28;20463;-61
2023/11/21 05:31:15;;;;;;;43.50;31.80;;;8.10;99.90;;;;;;5094300;28;20038;-57
2023/11/21 05:33:41;;;;;;;47.40;30.88;;;8.10;99.90;;;;;;5094521;28;20078;-60
2023/11/21 05:36:08;;;;;;;47.80;31.35;;;8.20;99.90;;;;;;5094037;28;20663;-55
2023/11/21 05:38:35;;;;;;;39.22;29.10;;;8.30;99.90;;;;;;5058314;28;20451;-56
2023/11/21 05:41:01;;;;;;;44.30;30.25;;;8.30;99.90;;;;;;5094062;28;20028;-63
2023/11/21 05:43:29;;;;;;;58.78;34.80;;;8.20;99.90;;;;;;5094149;28;20060;-61
2023/11/21 05:45:56;;;;;;;53.30;33.92;;;;;;;;;;5094055;28;20032;-53
2023/11/21 05:48:22;;;;;;;46.10;31.98;;;;;;;;;;5093512;28;20035;-63
2023/11/21 05:50:49;;;;;;;38.00;27.40;;;;;;;;;;5058535;28;20123;-60
2023/11/21 05:53:16;;;;;;;41.53;25.90;;;;;;;;;;5094332;28;20038;-61
2023/11/21 05:55:42;;;;;;;34.78;26.15;;;;;;;;;;5094084;28;20036;-59
2023/11/21 05:58:09;;;;;;;39.97;27.05;;;;;;;;;;5093843;28;20028;-58
2023/11/21 06:00:35;;;;;;;41.47;28.42;;;;;;;;;;5094218;28;20423;-55
2023/11/21 06:03:02;;;;;;;35.90;27.23;;;;;;;;;;5093762;28;20039;-55
2023/11/21 06:05:28;;;;;;;44.50;29.08;;;;;;;;;;5093856;28;20060;-55
2023/11/21 06:07:58;;;;;;;38.08;26.95;;;;;;;;;;5093787;28;20082;-64
2023/11/21 06:10:25;;;;;;;36.20;26.27;;;;;;;;;;5094236;28;20028;-60
2023/11/21 06:12:51;;;;;;;33.38;26.08;;;;;;;;;;5093767;28;20028;-64
2023/11/21 06:15:20;;;;;;;31.95;23.92;;;8.40;99.90;;;;;;5093580;28;20103;-60
2023/11/21 06:17:52;;;;;;;34.05;24.98;;;8.30;99.90;;;;;;5093630;28;20124;-57
2023/11/21 06:20:18;;;;;;;33.58;22.77;;;8.30;99.90;;;;;;5093800;28;20082;-61
2023/11/21 06:22:45;;;;;;;35.15;23.35;;;8.20;99.90;;;;;;5057802;28;20040;-55
2023/11/21 06:25:15;;;;;;;37.30;23.05;;;8.20;99.90;;;;;;5093489;28;20024;-58
2023/11/21 06:27:44;;;;;;;34.03;24.05;;;8.10;99.90;;;;;;5093411;28;20028;-59
2023/11/21 06:30:11;;;;;;;30.30;22.58;;;8.20;99.90;;;;;;5093523;28;20067;-58
2023/11/21 06:32:39;;;;;;;33.17;24.98;;;8.30;99.90;;;;;;5093693;28;20032;-60
2023/11/21 06:35:06;;;;;;;42.95;31.48;;;8.40;99.90;;;;;;5093454;28;20028;-63
2023/11/21 06:37:32;;;;;;;37.30;29.02;;;8.50;99.90;;;;;;5041422;28;20036;-62
2023/11/21 06:39:59;;;;;;;31.92;22.58;;;8.80;99.90;;;;;;5093114;28;20540;-61
2023/11/21 06:42:26;;;;;;;55.60;36.80;;;9.00;99.90;;;;;;5093000;28;20016;-61
2023/11/21 06:44:53;;;;;;;40.15;26.30;;;;;;;;;;5040814;28;20035;-60
2023/11/21 06:47:20;;;;;;;44.25;30.80;;;;;;;;;;5036953;28;20044;-65
2023/11/21 06:49:49;;;;;;;43.13;30.83;;;;;;;;;;5037142;28;20033;-60
2023/11/21 06:52:15;;;;;;;33.40;24.60;;;;;;;;;;5073119;28;20036;-53
2023/11/21 06:54:41;;;;;;;34.72;26.30;;;8.80;99.90;;;;;;5072907;28;20028;-64
2023/11/21 06:57:07;;;;;;;34.78;25.77;;;8.70;99.90;;;;;;5072586;28;20365;-57
2023/11/21 06:59:33;;;;;;;41.75;24.75;;;8.60;99.90;;;;;;5072353;28;20086;-59
2023/11/21 07:01:59;;;;;;;33.97;25.73;;;;;;;;;;5072399;28;20032;-58
2023/11/21 07:04:28;;;;;;;40.30;27.13;;;9.10;99.90;;;;;;5072998;28;20024;-55
2023/11/21 07:06:54;;;;;;;51.83;27.17;;;;;;;;;;5093253;28;20043;-56
2023/11/21 07:09:25;;;;;;;40.75;27.13;;;;;;;;;;5092963;28;20368;-55
2023/11/21 07:11:51;;;;;;;31.98;25.08;;;;;;;;;;5093537;28;20028;-56
2023/11/21 07:14:19;;;;;;;36.60;26.58;;;;;;;;;;5092568;28;20032;-55
2023/11/21 07:16:45;;;;;;;35.25;26.50;;;;;;;;;;5092518;28;20031;-54
2023/11/21 07:19:12;;;;;;;32.75;23.42;;;;;;;;;;5092783;28;20039;-54
2023/11/21 07:21:41;;;;;;;39.78;25.60;;;;;;;;;;5092836;28;20035;-58
2023/11/21 07:24:08;;;;;;;39.78;27.08;;;;;;;;;;5092380;28;20099;-58
2023/11/21 07:26:35;;;;;;;38.47;27.10;;;;;;;;;;5093178;28;20021;-57
2023/11/21 07:29:02;;;;;;;33.53;25.20;;;;;;;;;;5092269;28;20379;-59
2023/11/21 07:31:29;;;;;;;30.33;22.63;;;;;;;;;;5092947;28;20024;-53
2023/11/21 07:33:57;;;;;;;34.13;24.23;;;;;;;;;;5093038;28;20387;-55
2023/11/21 07:36:23;;;;;;;28.70;21.50;;;;;;;;;;5093617;28;20437;-59
2023/11/21 07:38:50;;;;;;;32.40;22.67;;;;;;;;;;5092628;28;20364;-54
2023/11/21 07:41:17;;;;;;;34.28;22.40;;;;;;;;;;5092631;28;20020;-55
2023/11/21 07:43:44;;;;;;;30.85;21.92;;;;;;;;;;5092148;28;20051;-58
2023/11/21 07:46:12;;;;;;;32.17;21.27;;;9.50;99.90;;;;;;5092245;28;20028;-57
2023/11/21 07:48:39;;;;;;;27.90;21.20;;;;;;;;;;5092075;28;20111;-56
2023/11/21 07:51:05;;;;;;;36.80;24.83;;;;;;;;;;5092056;28;20073;-55
2023/11/21 07:53:31;;;;;;;39.15;26.58;;;;;;;;;;5092043;28;20039;-57
2023/11/21 07:55:57;;;;;;;44.65;27.45;;;;;;;;;;5092355;28;20032;-54
2023/11/21 07:58:23;;;;;;;40.20;27.52;;;9.90;99.90;;;;;;5091605;28;20044;-58
2023/11/21 08:00:50;;;;;;;29.35;22.33;;;10.20;99.90;;;;;;5091907;28;20435;-54
2023/11/21 08:03:16;;;;;;;31.33;22.23;;;10.30;99.90;;;;;;5072905;28;20074;-54
2023/11/21 08:05:43;;;;;;;31.05;22.05;;;;;;;;;;5091142;28;20028;-56
2023/11/21 08:08:09;;;;;;;40.58;27.70;;;10.50;99.90;;;;;;5092177;28;20020;-57
2023/11/21 08:10:38;;;;;;;43.53;29.63;;;;;;;;;;5091873;28;20398;-54
2023/11/21 08:13:05;;;;;;;27.83;20.48;;;11.20;99.90;;;;;;5091303;28;20039;-58
2023/11/21 08:15:33;;;;;;;27.00;19.92;;;11.40;99.90;;;;;;5091204;28;20024;-53
2023/11/21 08:17:59;;;;;;;42.38;30.48;;;11.50;99.90;;;;;;5091218;28;20035;-57
2023/11/21 08:20:25;;;;;;;30.58;20.75;;;11.80;99.90;;;;;;5091534;28;20022;-54
2023/11/21 08:22:52;;;;;;;26.55;19.20;;;;;;;;;;5091796;28;20467;-54
2023/11/21 08:25:19;;;;;;;26.13;17.95;;;12.70;99.90;;;;;;5091899;28;20445;-58
2023/11/21 08:27:46;;;;;;;27.85;18.35;;;12.50;99.90;;;;;;5091794;28;20028;-57
2023/11/21 08:30:13;;;;;;;25.60;18.30;;;13.00;99.90;;;;;;5072331;28;20036;-55
2023/11/21 08:32:40;;;;;;;30.17;18.33;;;13.30;99.90;;;;;;5091464;28;20059;-53
2023/11/21 08:35:07;;;;;;;29.45;18.17;;;;;;;;;;5028971;28;20049;-53
2023/11/21 08:37:37;;;;;;;34.45;23.00;;;14.00;99.90;;;;;;5028829;28;20034;-53
2023/11/21 08:40:20;;;;;;;34.30;23.00;;;13.70;99.90;;;;;;4976775;28;20046;-54
2023/11/21 08:42:47;;;;;;;36.63;23.70;;;13.80;99.90;;;;;;4993046;28;20109;-52
2023/11/21 08:45:17;;;;;;;41.50;27.92;;;13.30;99.90;;;;;;4993231;28;20125;-53
2023/11/21 08:47:46;;;;;;;49.03;32.17;;;13.20;99.90;;;;;;4993373;28;20030;-53
2023/11/21 08:50:12;;;;;;;62.05;39.15;;;12.90;99.90;;;;;;4960791;28;20046;-53
2023/11/21 08:52:42;;;;;;;48.97;34.05;;;12.80;99.90;;;;;;4993395;28;20469;-52
2023/11/21 08:55:08;;;;;;;40.78;28.55;;;12.50;99.90;;;;;;4993198;28;20038;-54
2023/11/21 08:57:37;;;;;;;43.88;30.13;;;;;;;;;;4976816;28;20038;-55
2023/11/21 09:00:07;;;;;;;47.35;30.75;;;11.90;99.90;;;;;;4992993;28;20042;-54
2023/11/21 09:02:41;;;;;;;44.38;28.95;;;11.80;99.90;;;;;;4965372;28;20533;-54
2023/11/21 09:05:11;;;;;;;50.53;33.10;;;;;;;;;;5013718;28;20030;-55
2023/11/21 09:07:38;;;;;;;48.00;33.60;;;11.40;99.90;;;;;;5028570;28;20053;-54
2023/11/21 09:10:09;;;;;;;59.95;40.92;;;;;;;;;;5014893;28;20065;-53
2023/11/21 09:12:37;;;;;;;60.83;42.55;;;;;;;;;;5073910;28;20028;-54
2023/11/21 09:15:04;;;;;;;53.28;38.13;;;;;;;;;;5062189;28;20029;-54
2023/11/21 09:17:30;;;;;;;54.25;39.25;;;11.00;99.90;;;;;;5027938;28;20045;-54
2023/11/21 09:19:57;;;;;;;47.97;36.50;;;;;;;;;;5011679;28;20207;-54
2023/11/21 09:22:24;;;;;;;51.42;34.72;;;;;;;;;;5074434;28;20028;-54
2023/11/21 09:24:51;;;;;;;47.85;36.47;;;10.80;99.90;;;;;;5074063;28;20029;-54
2023/11/21 09:27:17;;;;;;;52.20;37.25;;;10.70;99.90;;;;;;5074553;28;20047;-54
2023/11/21 09:29:43;;;;;;;49.10;37.90;;;10.70;99.90;;;;;;5074537;28;20372;-54
2023/11/21 09:32:11;;;;;;;48.25;35.95;;;;;;;;;;5074069;28;20024;-55
2023/11/21 09:34:38;;;;;;;46.58;35.65;;;10.60;99.90;;;;;;5067627;28;20025;-55
2023/11/21 09:37:06;;;;;;;48.00;35.65;;;10.50;99.90;;;;;;5062562;28;20134;-54
2023/11/21 09:39:35;;;;;;;47.35;36.17;;;10.40;99.90;;;;;;5065636;28;20043;-54
2023/11/21 09:42:25;;;;;;;47.55;34.95;;;;;;;;;;5059164;28;20111;-53
2023/11/21 09:45:24;;;;;;;68.95;55.42;;;10.60;99.90;;;;;;5061827;28;20565;-54
2023/11/21 09:47:50;;;;;;;49.95;37.45;;;10.70;99.90;;;;;;5072686;28;20035;-55
2023/11/21 09:50:18;;;;;;;60.35;45.38;;;;;;;;;;5073113;28;20040;-55
2023/11/21 09:53:04;;;;;;;60.92;44.53;;;;;;;;;;5061794;28;20031;-54
2023/11/21 09:55:36;;;;;;;46.72;35.85;;;10.60;99.90;;;;;;5057647;28;20033;-56
2023/11/21 09:58:03;;;;;;;59.75;37.33;;;;;;;;;;5064143;28;20119;-55
2023/11/21 10:00:33;;;;;;;46.50;36.10;;;;;;;;;;5066920;28;20552;-55
2023/11/21 10:03:00;;;;;;;42.45;35.70;;;;;;;;;;5073638;28;20115;-56
2023/11/21 10:05:26;;;;;;;42.42;33.30;;;;;;;;;;5066077;28;20028;-56
2023/11/21 10:07:53;;;;;;;45.47;32.10;;;;;;;;;;5054068;28;20036;-55
2023/11/21 10:10:21;;;;;;;45.92;32.38;;;10.60;99.90;;;;;;5053732;28;20025;-54
2023/11/21 10:12:53;;;;;;;47.30;35.78;;;10.40;99.90;;;;;;5056541;28;20024;-55
2023/11/21 10:15:21;;;;;;;50.08;37.28;;;10.30;99.90;;;;;;5073110;28;20546;-55
2023/11/21 10:17:49;;;;;;;49.00;36.22;;;10.30;99.90;;;;;;5073074;28;20029;-55
2023/11/21 10:20:16;;;;;;;51.38;39.08;;;;;;;;;;5054496;28;20422;-55
2023/11/21 10:22:43;;;;;;;55.50;41.53;;;10.60;99.90;;;;;;5073227;28;20033;-55
2023/11/21 10:25:16;;;;;;;50.10;36.05;;;10.60;99.90;;;;;;5073551;28;20030;-56
2023/11/21 10:27:43;;;;;;;48.22;35.88;;;10.80;99.90;;;;;;5010948;28;20044;-56
2023/11/21 10:30:11;;;;;;;48.90;36.83;;;10.70;99.90;;;;;;5010286;28;20547;-55
2023/11/21 10:32:41;;;;;;;46.95;38.15;;;10.70;99.90;;;;;;4994293;28;20677;-55
2023/11/21 10:35:10;;;;;;;50.45;40.72;;;10.70;99.90;;;;;;5010790;28;20033;-55
2023/11/21 10:37:43;;;;;;;52.15;44.47;;;10.70;99.90;;;;;;5010069;28;20045;-55
2023/11/21 10:40:13;;;;;;;51.80;39.92;;;10.60;99.90;;;;;;5010928;28;20041;-56
2023/11/21 10:42:39;;;;;;;53.08;41.33;;;10.60;99.90;;;;;;5013035;28;20108;-55
2023/11/21 10:45:11;;;;;;;48.88;38.67;;;;;;;;;;5013809;28;20358;-55
2023/11/21 10:47:38;;;;;;;57.05;39.58;;;;;;;;;;5030626;28;20460;-55
2023/11/21 10:50:04;;;;;;;53.15;43.60;;;10.50;99.90;;;;;;5030134;28;20072;-58
2023/11/21 10:52:31;;;;;;;55.53;42.88;;;;;;;;;;5030406;28;20040;-56
2023/11/21 10:54:58;;;;;;;59.78;45.47;;;;;;;;;;5030300;28;20428;-55
2023/11/21 10:57:25;;;;;;;56.00;42.83;;;10.80;99.90;;;;;;4997875;28;20037;-56
2023/11/21 10:59:54;;;;;;;56.65;44.55;;;10.80;99.90;;;;;;5092581;28;20032;-58
2023/11/21 11:02:32;;;;;;;56.83;43.05;;;10.80;99.90;;;;;;5092471;28;20024;-54
2023/11/21 11:05:00;;;;;;;146.52;95.88;;;10.80;99.90;;;;;;5092099;28;20467;-55
2023/11/21 11:07:27;;;;;;;112.13;77.15;;;10.80;99.90;;;;;;5092114;28;20036;-55
2023/11/21 11:09:58;;;;;;;59.50;46.15;;;10.70;99.90;;;;;;5055751;28;20036;-54
2023/11/21 11:12:24;;;;;;;113.50;72.20;;;;;;;;;;5056546;28;20064;-55
2023/11/21 11:14:52;;;;;;;76.40;56.05;;;;;;;;;;5092374;28;20027;-54
2023/11/21 11:17:20;;;;;;;66.15;48.85;;;;;;;;;;5074425;28;20039;-57
2023/11/21 11:19:47;;;;;;;60.05;45.65;;;;;;;;;;5092203;28;20039;-55
2023/11/21 11:22:30;;;;;;;94.03;63.67;;;;;;;;;;5079057;28;20040;-55
2023/11/21 11:25:28;;;;;;;138.82;102.35;;;;;;;;;;5071806;28;20163;-54
2023/11/21 11:28:03;;;;;;;86.35;69.53;;;10.70;99.90;;;;;;5017064;28;20083;-56
2023/11/21 11:30:38;;;;;;;51.70;43.22;;;10.60;99.90;;;;;;5071988;28;20024;-54
2023/11/21 11:33:32;;;;;;;56.70;45.05;;;10.80;99.90;;;;;;5071887;28;20036;-55
2023/11/21 11:36:13;;;;;;;54.47;44.83;;;11.00;99.90;;;;;;5072028;28;20028;-55
2023/11/21 11:38:44;;;;;;;53.92;43.83;;;11.10;99.90;;;;;;5071830;28;20142;-55
2023/11/21 11:41:10;;;;;;;52.83;40.40;;;11.10;99.90;;;;;;5071824;28;20107;-55
2023/11/21 11:43:45;;;;;;;48.55;36.85;;;11.00;99.90;;;;;;5071668;28;20087;-54
2023/11/21 11:46:15;;;;;;;51.90;40.97;;;11.00;99.90;;;;;;5098400;28;20073;-54
2023/11/21 11:48:40;;;;;;;49.90;36.15;;;10.90;99.90;;;;;;5091704;28;20020;-54
2023/11/21 11:51:20;;;;;;;64.65;46.53;;;10.90;99.90;;;;;;5055234;28;20476;-55
2023/11/21 11:53:48;;;;;;;49.40;36.42;;;;;;;;;;5091779;28;20035;-54
2023/11/21 11:56:28;;;;;;;51.88;40.33;;;10.40;99.90;;;;;;5091747;28;20082;-54
2023/11/21 11:58:56;;;;;;;53.97;44.55;;;10.30;99.90;;;;;;5091702;28;20043;-62
2023/11/21 12:01:24;;;;;;;63.85;47.10;;;10.40;99.90;;;;;;5091741;28;20482;-58
2023/11/21 12:04:09;;;;;;;64.93;48.55;;;;;;;;;;5087767;28;20383;-57
2023/11/21 12:06:35;;;;;;;75.90;53.53;;;;;;;;;;5093963;28;20035;-60
2023/11/21 12:09:05;;;;;;;86.03;61.15;;;;;;;;;;5095400;28;20047;-60
2023/11/21 12:11:32;;;;;;;70.22;54.40;;;;;;;;;;5091764;28;20032;-64
2023/11/21 12:13:59;;;;;;;83.63;61.72;;;;;;;;;;5091150;28;20032;-62
2023/11/21 12:16:29;;;;;;;101.03;75.70;;;;;;;;;;5095211;28;20032;-61
2023/11/21 12:18:55;;;;;;;69.38;53.88;;;;;;;;;;5095084;28;20083;-60
2023/11/21 12:21:22;;;;;;;103.03;75.70;;;;;;;;;;5088555;28;20024;-61
2023/11/21 12:23:48;;;;;;;63.53;50.53;;;;;;;;;;5089819;28;20071;-60
2023/11/21 12:26:15;;;;;;;62.65;50.85;;;;;;;;;;5094916;28;20035;-61
2023/11/21 12:28:40;;;;;;;67.13;51.17;;;10.40;99.90;;;;;;5095668;28;20536;-57
2023/11/21 12:31:06;;;;;;;67.95;51.33;;;10.50;99.90;;;;;;5094806;28;20110;-57
2023/11/21 12:33:36;;;;;;;97.80;73.45;;;10.50;99.90;;;;;;5093062;28;20034;-61
2023/11/21 12:36:03;;;;;;;65.72;51.22;;;10.40;99.90;;;;;;5094611;28;20368;-61
2023/11/21 12:38:35;;;;;;;61.90;49.10;;;;;;;;;;5095699;28;20054;-59
2023/11/21 12:41:01;;;;;;;;;;;;;;;;;;5096239;28;20094;-61
2023/11/21 12:43:28;;;;;;;62.42;48.90;;;10.60;99.90;;;;;;5094750;28;19973;-60
2023/11/21 12:46:09;;;;;;;57.38;44.60;;;10.60;99.90;;;;;;5095271;28;20027;-62
2023/11/21 12:48:45;;;;;;;56.83;45.33;;;10.70;99.90;;;;;;5095251;28;20035;-60
2023/11/21 12:51:12;;;;;;;61.72;50.83;;;10.60;99.90;;;;;;5061225;28;20491;-60
2023/11/21 12:53:41;;;;;;;64.25;50.65;;;10.70;99.90;;;;;;5095123;28;20362;-64
2023/11/21 12:56:11;;;;;;;67.65;52.13;;;10.70;99.90;;;;;;5083996;28;20059;-61
2023/11/21 12:58:39;;;;;;;54.20;44.28;;;;;;;;;;5083880;28;20123;-62
2023/11/21 13:01:09;;;;;;;58.50;44.05;;;;;;;;;;5047338;28;20503;-61
2023/11/21 13:03:45;;;;;;;52.08;41.67;;;;;;;;;;5079181;28;20024;-60
2023/11/21 13:06:13;;;;;;;52.30;42.40;;;;;;;;;;5083960;28;20035;-59
2023/11/21 13:08:39;;;;;;;52.95;42.80;;;10.80;99.90;;;;;;5078840;28;20024;-60